Russellville, Missouri
Current Conditions -  °F | °C
As of 7:53 PM on Monday 20 Oct 2014 (Local Time) from KJEF Reporting Station
Clear Clear  
Wind Chill: 60°   Ceiling: Unl
Heat Index: 60°   Visibility: 10mi
Dew Point: 44°   Wind: 5mph
Humidity: 55%   Direction: 330°NNW
Pressure: 30.03"   Gusts: NA
Location:  38.51°N, 92.44°W
Report Text: KJEF 210053Z AUTO 33004KT 10SM CLR 16/07 A3003 RMK AO2 SLP158 T01560067
Loading
Personal Weather Stations






























Interactive Weather Map
Tropical Storm Tracking
New forecast layout! Learn more

10-Day Weather Forecast

Advertisements
Track Severe Weather on mobile